sensor_id;sensor_type;location;lat;lon;timestamp;temperature;humidity
13328;DHT22;6733;51.044;3.746;2023-12-04T00:01:25;4.90;99.90
13328;DHT22;6733;51.044;3.746;2023-12-04T00:03:52;4.90;99.90
13328;DHT22;6733;51.044;3.746;2023-12-04T00:06:21;4.90;99.90
13328;DHT22;6733;51.044;3.746;2023-12-04T00:08:48;4.80;99.90
13328;DHT22;6733;51.044;3.746;2023-12-04T00:11:15;4.80;99.90
13328;DHT22;6733;51.044;3.746;2023-12-04T00:13:41;4.80;99.90
13328;DHT22;6733;51.044;3.746;2023-12-04T00:16:07;4.80;99.90
13328;DHT22;6733;51.044;3.746;2023-12-04T00:18:32;4.80;99.90
13328;DHT22;6733;51.044;3.746;2023-12-04T00:20:58;4.80;99.90
13328;DHT22;6733;51.044;3.746;2023-12-04T00:23:25;4.80;99.90
13328;DHT22;6733;51.044;3.746;2023-12-04T00:25:51;4.70;99.90
13328;DHT22;6733;51.044;3.746;2023-12-04T00:28:17;4.70;99.90
13328;DHT22;6733;51.044;3.746;2023-12-04T00:30:42;4.70;99.90
13328;DHT22;6733;51.044;3.746;2023-12-04T00:33:08;4.70;99.90
13328;DHT22;6733;51.044;3.746;2023-12-04T00:35:34;4.70;99.90
13328;DHT22;6733;51.044;3.746;2023-12-04T00:38:00;4.60;99.90
13328;DHT22;6733;51.044;3.746;2023-12-04T00:40:25;4.60;99.90
13328;DHT22;6733;51.044;3.746;2023-12-04T00:42:51;4.60;99.90
13328;DHT22;6733;51.044;3.746;2023-12-04T00:45:17;4.60;99.90
13328;DHT22;6733;51.044;3.746;2023-12-04T00:47:44;4.60;99.90
13328;DHT22;6733;51.044;3.746;2023-12-04T00:50:11;4.60;99.90
13328;DHT22;6733;51.044;3.746;2023-12-04T00:52:37;4.60;99.90
13328;DHT22;6733;51.044;3.746;2023-12-04T00:55:02;4.60;99.90
13328;DHT22;6733;51.044;3.746;2023-12-04T00:57:29;4.60;99.90
13328;DHT22;6733;51.044;3.746;2023-12-04T00:59:54;4.60;99.90
13328;DHT22;6733;51.044;3.746;2023-12-04T01:02:20;4.70;99.90
13328;DHT22;6733;51.044;3.746;2023-12-04T01:04:46;4.70;99.90
13328;DHT22;6733;51.044;3.746;2023-12-04T01:07:12;4.70;99.90
13328;DHT22;6733;51.044;3.746;2023-12-04T01:09:38;4.70;99.90
13328;DHT22;6733;51.044;3.746;2023-12-04T01:12:04;4.70;99.90
13328;DHT22;6733;51.044;3.746;2023-12-04T01:14:30;4.80;99.90
13328;DHT22;6733;51.044;3.746;2023-12-04T01:16:56;4.80;99.90
13328;DHT22;6733;51.044;3.746;2023-12-04T01:19:22;4.80;99.90
13328;DHT22;6733;51.044;3.746;2023-12-04T01:21:48;4.90;99.90
13328;DHT22;6733;51.044;3.746;2023-12-04T01:24:15;4.90;99.90
13328;DHT22;6733;51.044;3.746;2023-12-04T01:26:41;4.90;99.90
13328;DHT22;6733;51.044;3.746;2023-12-04T01:29:07;4.90;99.90
13328;DHT22;6733;51.044;3.746;2023-12-04T01:31:33;4.90;99.90
13328;DHT22;6733;51.044;3.746;2023-12-04T01:34:00;4.90;99.90
13328;DHT22;6733;51.044;3.746;2023-12-04T01:36:26;4.90;99.90
13328;DHT22;6733;51.044;3.746;2023-12-04T01:38:52;4.90;99.90
13328;DHT22;6733;51.044;3.746;2023-12-04T01:41:18;4.90;99.90
13328;DHT22;6733;51.044;3.746;2023-12-04T01:43:45;4.90;99.90
13328;DHT22;6733;51.044;3.746;2023-12-04T01:46:11;5.00;99.90
13328;DHT22;6733;51.044;3.746;2023-12-04T01:48:37;5.00;99.90
13328;DHT22;6733;51.044;3.746;2023-12-04T01:51:05;5.00;99.90
13328;DHT22;6733;51.044;3.746;2023-12-04T01:53:31;5.00;99.90
13328;DHT22;6733;51.044;3.746;2023-12-04T01:55:57;5.00;99.90
13328;DHT22;6733;51.044;3.746;2023-12-04T01:58:23;5.00;99.90
13328;DHT22;6733;51.044;3.746;2023-12-04T02:00:49;5.00;99.90
13328;DHT22;6733;51.044;3.746;2023-12-04T02:03:15;5.00;99.90
13328;DHT22;6733;51.044;3.746;2023-12-04T02:05:43;5.10;99.90
13328;DHT22;6733;51.044;3.746;2023-12-04T02:08:09;5.00;99.90
13328;DHT22;6733;51.044;3.746;2023-12-04T02:10:36;5.10;99.90
13328;DHT22;6733;51.044;3.746;2023-12-04T02:13:02;5.10;99.90
13328;DHT22;6733;51.044;3.746;2023-12-04T02:15:28;5.00;99.90
13328;DHT22;6733;51.044;3.746;2023-12-04T02:17:54;5.00;99.90
13328;DHT22;6733;51.044;3.746;2023-12-04T02:20:20;5.00;99.90
13328;DHT22;6733;51.044;3.746;2023-12-04T02:22:46;5.00;99.90
13328;DHT22;6733;51.044;3.746;2023-12-04T02:25:12;5.00;99.90
13328;DHT22;6733;51.044;3.746;2023-12-04T02:27:40;5.00;99.90
13328;DHT22;6733;51.044;3.746;2023-12-04T02:30:10;5.10;99.90
13328;DHT22;6733;51.044;3.746;2023-12-04T02:56:12;5.00;99.90
13328;DHT22;6733;51.044;3.746;2023-12-04T02:58:38;5.00;99.90
13328;DHT22;6733;51.044;3.746;2023-12-04T03:01:04;5.10;99.90
13328;DHT22;6733;51.044;3.746;2023-12-04T03:03:33;5.10;99.90
13328;DHT22;6733;51.044;3.746;2023-12-04T03:05:59;5.10;99.90
13328;DHT22;6733;51.044;3.746;2023-12-04T03:08:28;5.10;99.90
13328;DHT22;6733;51.044;3.746;2023-12-04T03:10:54;5.10;99.90
13328;DHT22;6733;51.044;3.746;2023-12-04T03:13:20;5.10;99.90
13328;DHT22;6733;51.044;3.746;2023-12-04T03:15:45;5.10;99.90
13328;DHT22;6733;51.044;3.746;2023-12-04T03:18:11;5.10;99.90
13328;DHT22;6733;51.044;3.746;2023-12-04T03:20:36;5.10;99.90
13328;DHT22;6733;51.044;3.746;2023-12-04T03:23:02;5.20;99.90
13328;DHT22;6733;51.044;3.746;2023-12-04T03:25:28;5.20;99.90
13328;DHT22;6733;51.044;3.746;2023-12-04T03:27:54;5.20;99.90
13328;DHT22;6733;51.044;3.746;2023-12-04T03:30:20;5.10;99.90
13328;DHT22;6733;51.044;3.746;2023-12-04T03:32:46;5.10;99.90
13328;DHT22;6733;51.044;3.746;2023-12-04T03:35:12;5.10;99.90
13328;DHT22;6733;51.044;3.746;2023-12-04T03:37:39;5.10;99.90
13328;DHT22;6733;51.044;3.746;2023-12-04T03:40:05;5.10;99.90
13328;DHT22;6733;51.044;3.746;2023-12-04T03:42:31;5.20;99.90
13328;DHT22;6733;51.044;3.746;2023-12-04T03:44:57;5.20;99.90
13328;DHT22;6733;51.044;3.746;2023-12-04T03:47:22;5.20;99.90
13328;DHT22;6733;51.044;3.746;2023-12-04T03:49:48;5.20;99.90
13328;DHT22;6733;51.044;3.746;2023-12-04T03:52:14;5.20;99.90
13328;DHT22;6733;51.044;3.746;2023-12-04T03:54:40;5.30;99.90
13328;DHT22;6733;51.044;3.746;2023-12-04T03:57:06;5.20;99.90
13328;DHT22;6733;51.044;3.746;2023-12-04T03:59:32;5.20;99.90
13328;DHT22;6733;51.044;3.746;2023-12-04T04:01:58;5.20;99.90
13328;DHT22;6733;51.044;3.746;2023-12-04T04:04:24;5.30;99.90
13328;DHT22;6733;51.044;3.746;2023-12-04T04:06:50;5.30;99.90
13328;DHT22;6733;51.044;3.746;2023-12-04T04:09:16;5.30;99.90
13328;DHT22;6733;51.044;3.746;2023-12-04T04:11:42;5.30;99.90
13328;DHT22;6733;51.044;3.746;2023-12-04T04:14:08;5.40;99.90
13328;DHT22;6733;51.044;3.746;2023-12-04T04:16:35;5.40;99.90
13328;DHT22;6733;51.044;3.746;2023-12-04T04:19:00;5.40;99.90
13328;DHT22;6733;51.044;3.746;2023-12-04T04:21:26;5.40;99.90
13328;DHT22;6733;51.044;3.746;2023-12-04T04:23:52;5.40;99.90
13328;DHT22;6733;51.044;3.746;2023-12-04T04:26:19;5.40;99.90
13328;DHT22;6733;51.044;3.746;2023-12-04T04:28:45;5.40;99.90
13328;DHT22;6733;51.044;3.746;2023-12-04T04:31:10;5.50;99.90
13328;DHT22;6733;51.044;3.746;2023-12-04T04:33:36;5.50;99.90
13328;DHT22;6733;51.044;3.746;2023-12-04T04:36:02;5.50;99.90
13328;DHT22;6733;51.044;3.746;2023-12-04T04:38:28;5.50;99.90
13328;DHT22;6733;51.044;3.746;2023-12-04T04:40:53;5.50;99.90
13328;DHT22;6733;51.044;3.746;2023-12-04T04:43:19;5.50;99.90
13328;DHT22;6733;51.044;3.746;2023-12-04T04:45:45;5.60;99.90
13328;DHT22;6733;51.044;3.746;2023-12-04T04:48:11;5.50;99.90
13328;DHT22;6733;51.044;3.746;2023-12-04T04:50:37;5.60;99.90
13328;DHT22;6733;51.044;3.746;2023-12-04T04:53:03;5.60;99.90
13328;DHT22;6733;51.044;3.746;2023-12-04T04:55:29;5.60;99.90
13328;DHT22;6733;51.044;3.746;2023-12-04T04:57:55;5.60;99.90
13328;DHT22;6733;51.044;3.746;2023-12-04T05:00:21;5.50;99.90
13328;DHT22;6733;51.044;3.746;2023-12-04T05:02:47;5.60;99.90
13328;DHT22;6733;51.044;3.746;2023-12-04T05:05:13;5.60;99.90
13328;DHT22;6733;51.044;3.746;2023-12-04T05:07:39;5.60;99.90
13328;DHT22;6733;51.044;3.746;2023-12-04T05:10:05;5.60;99.90
13328;DHT22;6733;51.044;3.746;2023-12-04T05:12:32;5.60;99.90
13328;DHT22;6733;51.044;3.746;2023-12-04T05:14:58;5.60;99.90
13328;DHT22;6733;51.044;3.746;2023-12-04T05:17:23;5.60;99.90
13328;DHT22;6733;51.044;3.746;2023-12-04T05:19:49;5.60;99.90
13328;DHT22;6733;51.044;3.746;2023-12-04T05:22:15;5.70;99.90
13328;DHT22;6733;51.044;3.746;2023-12-04T05:24:41;5.60;99.90
13328;DHT22;6733;51.044;3.746;2023-12-04T05:27:07;5.60;99.90
13328;DHT22;6733;51.044;3.746;2023-12-04T05:29:32;5.70;99.90
13328;DHT22;6733;51.044;3.746;2023-12-04T05:31:58;5.70;99.90
13328;DHT22;6733;51.044;3.746;2023-12-04T05:34:25;5.70;99.90
13328;DHT22;6733;51.044;3.746;2023-12-04T05:36:51;5.70;99.90
13328;DHT22;6733;51.044;3.746;2023-12-04T05:39:17;5.70;99.90
13328;DHT22;6733;51.044;3.746;2023-12-04T05:41:42;5.70;99.90
13328;DHT22;6733;51.044;3.746;2023-12-04T05:44:08;5.70;99.90
13328;DHT22;6733;51.044;3.746;2023-12-04T05:46:34;5.70;99.90
13328;DHT22;6733;51.044;3.746;2023-12-04T05:48:59;5.70;99.90
13328;DHT22;6733;51.044;3.746;2023-12-04T05:51:25;5.70;99.90
13328;DHT22;6733;51.044;3.746;2023-12-04T05:53:51;5.70;99.90
13328;DHT22;6733;51.044;3.746;2023-12-04T05:56:16;5.70;99.90
13328;DHT22;6733;51.044;3.746;2023-12-04T05:58:42;5.70;99.90
13328;DHT22;6733;51.044;3.746;2023-12-04T06:01:08;5.80;99.90
13328;DHT22;6733;51.044;3.746;2023-12-04T06:03:34;5.80;99.90
13328;DHT22;6733;51.044;3.746;2023-12-04T06:06:00;5.80;99.90
13328;DHT22;6733;51.044;3.746;2023-12-04T06:08:26;5.80;99.90
13328;DHT22;6733;51.044;3.746;2023-12-04T06:10:52;5.80;99.90
13328;DHT22;6733;51.044;3.746;2023-12-04T06:13:18;5.80;99.90
13328;DHT22;6733;51.044;3.746;2023-12-04T06:15:44;5.80;99.90
13328;DHT22;6733;51.044;3.746;2023-12-04T06:18:10;5.80;99.90
13328;DHT22;6733;51.044;3.746;2023-12-04T06:20:35;5.80;99.90
13328;DHT22;6733;51.044;3.746;2023-12-04T06:23:02;5.80;99.90
13328;DHT22;6733;51.044;3.746;2023-12-04T06:25:28;5.80;99.90
13328;DHT22;6733;51.044;3.746;2023-12-04T06:27:54;5.70;99.90
13328;DHT22;6733;51.044;3.746;2023-12-04T06:30:20;5.70;99.90
13328;DHT22;6733;51.044;3.746;2023-12-04T06:32:46;5.70;99.90
13328;DHT22;6733;51.044;3.746;2023-12-04T06:35:13;5.70;99.90
13328;DHT22;6733;51.044;3.746;2023-12-04T06:37:39;5.80;99.90
13328;DHT22;6733;51.044;3.746;2023-12-04T06:40:05;5.80;99.90
13328;DHT22;6733;51.044;3.746;2023-12-04T06:42:34;5.80;99.90
13328;DHT22;6733;51.044;3.746;2023-12-04T06:45:01;5.80;99.90
13328;DHT22;6733;51.044;3.746;2023-12-04T06:47:27;5.80;99.90
13328;DHT22;6733;51.044;3.746;2023-12-04T06:49:54;5.70;99.90
13328;DHT22;6733;51.044;3.746;2023-12-04T06:52:20;5.70;99.90
13328;DHT22;6733;51.044;3.746;2023-12-04T06:54:46;5.70;99.90
13328;DHT22;6733;51.044;3.746;2023-12-04T06:57:12;5.70;99.90
13328;DHT22;6733;51.044;3.746;2023-12-04T06:59:41;5.60;99.90
13328;DHT22;6733;51.044;3.746;2023-12-04T07:02:07;5.60;99.90
13328;DHT22;6733;51.044;3.746;2023-12-04T07:04:33;5.60;99.90
13328;DHT22;6733;51.044;3.746;2023-12-04T07:06:59;5.60;99.90
13328;DHT22;6733;51.044;3.746;2023-12-04T07:09:31;5.60;99.90
13328;DHT22;6733;51.044;3.746;2023-12-04T07:11:57;5.60;99.90
13328;DHT22;6733;51.044;3.746;2023-12-04T07:14:23;5.60;99.90
13328;DHT22;6733;51.044;3.746;2023-12-04T07:16:49;5.50;99.90
13328;DHT22;6733;51.044;3.746;2023-12-04T07:19:15;5.60;99.90
13328;DHT22;6733;51.044;3.746;2023-12-04T07:21:42;5.60;99.90
13328;DHT22;6733;51.044;3.746;2023-12-04T07:24:08;5.60;99.90
13328;DHT22;6733;51.044;3.746;2023-12-04T07:26:34;5.60;99.90
13328;DHT22;6733;51.044;3.746;2023-12-04T07:29:00;5.60;99.90
13328;DHT22;6733;51.044;3.746;2023-12-04T07:31:26;5.50;99.90
13328;DHT22;6733;51.044;3.746;2023-12-04T07:33:55;5.60;99.90
13328;DHT22;6733;51.044;3.746;2023-12-04T07:36:21;5.60;99.90
13328;DHT22;6733;51.044;3.746;2023-12-04T07:38:47;6.80;99.90
13328;DHT22;6733;51.044;3.746;2023-12-04T07:41:15;7.50;99.90
13328;DHT22;6733;51.044;3.746;2023-12-04T07:43:40;7.70;99.90
13328;DHT22;6733;51.044;3.746;2023-12-04T07:46:06;7.90;99.90
13328;DHT22;6733;51.044;3.746;2023-12-04T07:48:34;8.00;99.90
13328;DHT22;6733;51.044;3.746;2023-12-04T07:50:59;7.80;99.90
13328;DHT22;6733;51.044;3.746;2023-12-04T07:53:25;8.10;99.90
13328;DHT22;6733;51.044;3.746;2023-12-04T07:55:51;8.40;99.90
13328;DHT22;6733;51.044;3.746;2023-12-04T07:58:17;9.10;99.90
13328;DHT22;6733;51.044;3.746;2023-12-04T08:00:44;9.30;99.90
13328;DHT22;6733;51.044;3.746;2023-12-04T08:03:10;9.60;99.90
13328;DHT22;6733;51.044;3.746;2023-12-04T08:05:36;9.40;99.90
13328;DHT22;6733;51.044;3.746;2023-12-04T08:08:03;10.20;99.90
13328;DHT22;6733;51.044;3.746;2023-12-04T08:10:29;9.70;99.90
13328;DHT22;6733;51.044;3.746;2023-12-04T08:12:55;10.00;99.90
13328;DHT22;6733;51.044;3.746;2023-12-04T08:15:21;10.20;99.90
13328;DHT22;6733;51.044;3.746;2023-12-04T08:17:47;10.00;99.90
13328;DHT22;6733;51.044;3.746;2023-12-04T08:20:13;10.00;99.90
13328;DHT22;6733;51.044;3.746;2023-12-04T08:22:39;10.60;99.90
13328;DHT22;6733;51.044;3.746;2023-12-04T08:25:06;10.90;99.90
13328;DHT22;6733;51.044;3.746;2023-12-04T08:27:33;11.40;99.90
13328;DHT22;6733;51.044;3.746;2023-12-04T08:29:59;11.30;99.90
13328;DHT22;6733;51.044;3.746;2023-12-04T08:32:25;11.00;99.90
13328;DHT22;6733;51.044;3.746;2023-12-04T08:34:52;11.30;99.90
13328;DHT22;6733;51.044;3.746;2023-12-04T08:37:18;11.40;99.90
13328;DHT22;6733;51.044;3.746;2023-12-04T08:39:44;11.80;99.90
13328;DHT22;6733;51.044;3.746;2023-12-04T08:42:11;11.70;99.90
13328;DHT22;6733;51.044;3.746;2023-12-04T08:44:36;11.80;99.90
13328;DHT22;6733;51.044;3.746;2023-12-04T08:47:02;11.70;99.90
13328;DHT22;6733;51.044;3.746;2023-12-04T08:49:29;11.60;99.90
13328;DHT22;6733;51.044;3.746;2023-12-04T08:51:55;11.70;99.90
13328;DHT22;6733;51.044;3.746;2023-12-04T08:54:20;11.90;99.90
13328;DHT22;6733;51.044;3.746;2023-12-04T08:56:46;12.30;99.90
13328;DHT22;6733;51.044;3.746;2023-12-04T08:59:12;12.30;99.90
13328;DHT22;6733;51.044;3.746;2023-12-04T09:01:42;12.30;99.90
13328;DHT22;6733;51.044;3.746;2023-12-04T09:04:09;12.10;99.90
13328;DHT22;6733;51.044;3.746;2023-12-04T09:06:35;12.00;99.90
13328;DHT22;6733;51.044;3.746;2023-12-04T09:09:00;11.90;99.90
13328;DHT22;6733;51.044;3.746;2023-12-04T09:11:26;11.90;99.90
13328;DHT22;6733;51.044;3.746;2023-12-04T09:13:52;12.00;99.90
13328;DHT22;6733;51.044;3.746;2023-12-04T09:16:18;12.10;99.90
13328;DHT22;6733;51.044;3.746;2023-12-04T09:18:44;12.30;99.90
13328;DHT22;6733;51.044;3.746;2023-12-04T09:21:09;12.20;99.90
13328;DHT22;6733;51.044;3.746;2023-12-04T09:23:35;12.30;99.90
13328;DHT22;6733;51.044;3.746;2023-12-04T09:26:01;12.40;99.90
13328;DHT22;6733;51.044;3.746;2023-12-04T09:28:27;12.10;99.90
13328;DHT22;6733;51.044;3.746;2023-12-04T09:30:53;12.00;99.90
13328;DHT22;6733;51.044;3.746;2023-12-04T09:33:19;11.80;99.90
13328;DHT22;6733;51.044;3.746;2023-12-04T09:35:45;12.30;99.90
13328;DHT22;6733;51.044;3.746;2023-12-04T09:38:11;12.30;99.90
13328;DHT22;6733;51.044;3.746;2023-12-04T09:40:37;12.40;99.90
13328;DHT22;6733;51.044;3.746;2023-12-04T09:43:05;12.10;99.90
13328;DHT22;6733;51.044;3.746;2023-12-04T09:45:32;12.00;99.90
13328;DHT22;6733;51.044;3.746;2023-12-04T09:47:58;12.30;99.90
13328;DHT22;6733;51.044;3.746;2023-12-04T09:50:24;12.40;99.90
13328;DHT22;6733;51.044;3.746;2023-12-04T09:52:51;12.60;99.90
13328;DHT22;6733;51.044;3.746;2023-12-04T09:55:17;12.90;99.90
13328;DHT22;6733;51.044;3.746;2023-12-04T09:57:46;13.20;99.90
13328;DHT22;6733;51.044;3.746;2023-12-04T10:00:12;12.50;99.90
13328;DHT22;6733;51.044;3.746;2023-12-04T10:02:39;12.60;99.90
13328;DHT22;6733;51.044;3.746;2023-12-04T10:05:05;12.60;99.90
13328;DHT22;6733;51.044;3.746;2023-12-04T10:07:31;12.30;99.90
13328;DHT22;6733;51.044;3.746;2023-12-04T10:09:57;12.30;99.90
13328;DHT22;6733;51.044;3.746;2023-12-04T10:12:22;12.60;99.90
13328;DHT22;6733;51.044;3.746;2023-12-04T10:15:07;12.50;99.90
13328;DHT22;6733;51.044;3.746;2023-12-04T10:17:36;12.00;99.90
13328;DHT22;6733;51.044;3.746;2023-12-04T10:20:10;10.40;99.90
13328;DHT22;6733;51.044;3.746;2023-12-04T10:22:51;9.50;99.90
13328;DHT22;6733;51.044;3.746;2023-12-04T10:25:18;8.80;99.90
13328;DHT22;6733;51.044;3.746;2023-12-04T10:27:45;8.30;99.90
13328;DHT22;6733;51.044;3.746;2023-12-04T10:30:27;7.90;99.90
13328;DHT22;6733;51.044;3.746;2023-12-04T10:32:54;7.70;99.90
13328;DHT22;6733;51.044;3.746;2023-12-04T10:35:20;7.50;99.90
13328;DHT22;6733;51.044;3.746;2023-12-04T10:37:46;7.40;99.90
13328;DHT22;6733;51.044;3.746;2023-12-04T10:40:12;7.30;99.90
13328;DHT22;6733;51.044;3.746;2023-12-04T10:42:48;7.20;99.90
13328;DHT22;6733;51.044;3.746;2023-12-04T10:45:13;7.20;99.90
13328;DHT22;6733;51.044;3.746;2023-12-04T10:47:39;7.20;99.90
13328;DHT22;6733;51.044;3.746;2023-12-04T10:50:05;7.20;99.90
13328;DHT22;6733;51.044;3.746;2023-12-04T10:52:33;7.20;99.90
13328;DHT22;6733;51.044;3.746;2023-12-04T10:54:59;7.00;99.90
13328;DHT22;6733;51.044;3.746;2023-12-04T10:57:26;6.90;99.90
13328;DHT22;6733;51.044;3.746;2023-12-04T10:59:56;6.80;99.90
13328;DHT22;6733;51.044;3.746;2023-12-04T11:02:21;6.80;99.90
13328;DHT22;6733;51.044;3.746;2023-12-04T11:04:53;6.80;99.90
13328;DHT22;6733;51.044;3.746;2023-12-04T11:07:20;6.70;99.90
13328;DHT22;6733;51.044;3.746;2023-12-04T11:09:46;6.60;99.90
13328;DHT22;6733;51.044;3.746;2023-12-04T11:12:13;6.60;99.90
13328;DHT22;6733;51.044;3.746;2023-12-04T11:14:44;6.50;99.90
13328;DHT22;6733;51.044;3.746;2023-12-04T11:17:10;6.50;99.90
13328;DHT22;6733;51.044;3.746;2023-12-04T11:22:07;6.50;99.90
13328;DHT22;6733;51.044;3.746;2023-12-04T11:24:33;6.40;99.90
13328;DHT22;6733;51.044;3.746;2023-12-04T11:26:59;6.40;99.90
13328;DHT22;6733;51.044;3.746;2023-12-04T11:29:26;6.50;99.90
13328;DHT22;6733;51.044;3.746;2023-12-04T11:31:52;6.50;99.90
13328;DHT22;6733;51.044;3.746;2023-12-04T11:34:18;6.40;99.90
13328;DHT22;6733;51.044;3.746;2023-12-04T11:36:44;6.40;99.90
13328;DHT22;6733;51.044;3.746;2023-12-04T11:39:10;6.40;99.90
13328;DHT22;6733;51.044;3.746;2023-12-04T11:41:37;6.40;99.90
13328;DHT22;6733;51.044;3.746;2023-12-04T11:44:03;6.40;99.90
13328;DHT22;6733;51.044;3.746;2023-12-04T11:46:29;6.50;99.90
13328;DHT22;6733;51.044;3.746;2023-12-04T11:48:57;6.50;99.90
13328;DHT22;6733;51.044;3.746;2023-12-04T11:54:15;6.60;99.90
13328;DHT22;6733;51.044;3.746;2023-12-04T11:57:04;6.60;99.90
13328;DHT22;6733;51.044;3.746;2023-12-04T11:59:45;6.60;99.90
13328;DHT22;6733;51.044;3.746;2023-12-04T12:02:11;6.70;99.90
13328;DHT22;6733;51.044;3.746;2023-12-04T12:04:37;6.70;99.90
13328;DHT22;6733;51.044;3.746;2023-12-04T12:07:04;6.70;99.90
13328;DHT22;6733;51.044;3.746;2023-12-04T12:09:30;6.80;99.90
13328;DHT22;6733;51.044;3.746;2023-12-04T12:11:56;6.70;99.90
13328;DHT22;6733;51.044;3.746;2023-12-04T12:14:24;6.80;99.90
13328;DHT22;6733;51.044;3.746;2023-12-04T12:16:50;6.80;99.90
13328;DHT22;6733;51.044;3.746;2023-12-04T12:19:18;6.80;99.90
13328;DHT22;6733;51.044;3.746;2023-12-04T12:21:45;6.80;99.90
13328;DHT22;6733;51.044;3.746;2023-12-04T12:24:11;6.80;99.90
13328;DHT22;6733;51.044;3.746;2023-12-04T12:26:37;6.90;99.90
13328;DHT22;6733;51.044;3.746;2023-12-04T12:29:03;6.80;99.90
13328;DHT22;6733;51.044;3.746;2023-12-04T12:31:29;6.90;99.90
13328;DHT22;6733;51.044;3.746;2023-12-04T12:33:56;6.90;99.90
13328;DHT22;6733;51.044;3.746;2023-12-04T12:36:23;7.00;99.90
13328;DHT22;6733;51.044;3.746;2023-12-04T12:38:49;7.00;99.90
13328;DHT22;6733;51.044;3.746;2023-12-04T12:41:16;7.10;99.90
13328;DHT22;6733;51.044;3.746;2023-12-04T12:43:42;7.20;99.90
13328;DHT22;6733;51.044;3.746;2023-12-04T12:46:09;7.10;99.90
13328;DHT22;6733;51.044;3.746;2023-12-04T12:48:35;7.10;99.90
13328;DHT22;6733;51.044;3.746;2023-12-04T12:51:04;7.00;99.90
13328;DHT22;6733;51.044;3.746;2023-12-04T12:53:33;7.10;99.90
13328;DHT22;6733;51.044;3.746;2023-12-04T12:56:02;7.20;99.90
13328;DHT22;6733;51.044;3.746;2023-12-04T12:58:28;7.10;99.90
13328;DHT22;6733;51.044;3.746;2023-12-04T13:00:54;7.20;99.90
13328;DHT22;6733;51.044;3.746;2023-12-04T13:03:20;7.20;99.90
13328;DHT22;6733;51.044;3.746;2023-12-04T13:05:46;7.20;99.90
13328;DHT22;6733;51.044;3.746;2023-12-04T13:08:12;7.30;99.90
13328;DHT22;6733;51.044;3.746;2023-12-04T13:10:38;7.20;99.90
13328;DHT22;6733;51.044;3.746;2023-12-04T13:13:09;7.20;99.90
13328;DHT22;6733;51.044;3.746;2023-12-04T13:15:35;7.30;99.90
13328;DHT22;6733;51.044;3.746;2023-12-04T13:18:01;7.20;99.90
13328;DHT22;6733;51.044;3.746;2023-12-04T13:20:28;7.20;99.90
13328;DHT22;6733;51.044;3.746;2023-12-04T13:22:54;7.20;99.90
13328;DHT22;6733;51.044;3.746;2023-12-04T13:25:20;7.20;99.90
13328;DHT22;6733;51.044;3.746;2023-12-04T13:27:46;7.20;99.90
13328;DHT22;6733;51.044;3.746;2023-12-04T13:30:12;7.20;99.90
13328;DHT22;6733;51.044;3.746;2023-12-04T13:32:38;7.10;99.90
13328;DHT22;6733;51.044;3.746;2023-12-04T13:35:05;7.10;99.90
13328;DHT22;6733;51.044;3.746;2023-12-04T13:37:33;7.10;99.90
13328;DHT22;6733;51.044;3.746;2023-12-04T13:39:59;7.10;99.90
13328;DHT22;6733;51.044;3.746;2023-12-04T13:42:32;7.10;99.90
13328;DHT22;6733;51.044;3.746;2023-12-04T13:45:17;7.10;99.90
13328;DHT22;6733;51.044;3.746;2023-12-04T13:47:46;7.10;99.90
13328;DHT22;6733;51.044;3.746;2023-12-04T13:50:12;7.10;99.90
13328;DHT22;6733;51.044;3.746;2023-12-04T13:52:38;7.10;99.90
13328;DHT22;6733;51.044;3.746;2023-12-04T13:55:05;7.10;99.90
13328;DHT22;6733;51.044;3.746;2023-12-04T13:57:42;7.00;99.90
13328;DHT22;6733;51.044;3.746;2023-12-04T14:00:23;7.10;99.90
13328;DHT22;6733;51.044;3.746;2023-12-04T14:02:49;7.10;99.90
13328;DHT22;6733;51.044;3.746;2023-12-04T14:05:21;7.00;99.90
13328;DHT22;6733;51.044;3.746;2023-12-04T14:07:48;7.10;99.90
13328;DHT22;6733;51.044;3.746;2023-12-04T14:10:14;7.10;99.90
13328;DHT22;6733;51.044;3.746;2023-12-04T14:12:42;7.00;99.90
13328;DHT22;6733;51.044;3.746;2023-12-04T14:15:08;7.00;99.90
13328;DHT22;6733;51.044;3.746;2023-12-04T14:17:34;7.00;99.90
13328;DHT22;6733;51.044;3.746;2023-12-04T14:20:00;7.00;99.90
13328;DHT22;6733;51.044;3.746;2023-12-04T14:22:31;7.00;99.90
13328;DHT22;6733;51.044;3.746;2023-12-04T14:24:57;7.00;99.90
13328;DHT22;6733;51.044;3.746;2023-12-04T14:27:23;7.00;99.90
13328;DHT22;6733;51.044;3.746;2023-12-04T14:29:49;7.00;99.90
13328;DHT22;6733;51.044;3.746;2023-12-04T14:32:16;7.00;99.90
13328;DHT22;6733;51.044;3.746;2023-12-04T14:34:43;7.00;99.90
13328;DHT22;6733;51.044;3.746;2023-12-04T14:37:09;7.00;99.90
13328;DHT22;6733;51.044;3.746;2023-12-04T14:39:35;7.00;99.90
13328;DHT22;6733;51.044;3.746;2023-12-04T14:42:01;7.00;99.90
13328;DHT22;6733;51.044;3.746;2023-12-04T14:44:27;7.00;99.90
13328;DHT22;6733;51.044;3.746;2023-12-04T14:46:53;7.00;99.90
13328;DHT22;6733;51.044;3.746;2023-12-04T14:49:19;7.00;99.90
13328;DHT22;6733;51.044;3.746;2023-12-04T14:51:45;6.90;99.90
13328;DHT22;6733;51.044;3.746;2023-12-04T14:54:13;6.90;99.90
13328;DHT22;6733;51.044;3.746;2023-12-04T14:56:47;7.00;99.90
13328;DHT22;6733;51.044;3.746;2023-12-04T14:59:31;6.90;99.90
13328;DHT22;6733;51.044;3.746;2023-12-04T15:02:06;6.90;99.90
13328;DHT22;6733;51.044;3.746;2023-12-04T15:04:41;6.90;99.90
13328;DHT22;6733;51.044;3.746;2023-12-04T15:07:07;6.90;99.90
13328;DHT22;6733;51.044;3.746;2023-12-04T15:09:53;6.90;99.90
13328;DHT22;6733;51.044;3.746;2023-12-04T15:12:38;6.90;99.90
13328;DHT22;6733;51.044;3.746;2023-12-04T15:15:36;6.90;99.90
13328;DHT22;6733;51.044;3.746;2023-12-04T15:18:21;6.90;99.90
13328;DHT22;6733;51.044;3.746;2023-12-04T15:21:08;6.90;99.90
13328;DHT22;6733;51.044;3.746;2023-12-04T15:23:34;6.90;99.90
13328;DHT22;6733;51.044;3.746;2023-12-04T15:26:01;6.90;99.90
13328;DHT22;6733;51.044;3.746;2023-12-04T15:28:27;7.00;99.90
13328;DHT22;6733;51.044;3.746;2023-12-04T15:30:53;6.90;99.90
13328;DHT22;6733;51.044;3.746;2023-12-04T15:33:19;6.90;99.90
13328;DHT22;6733;51.044;3.746;2023-12-04T15:35:46;7.00;99.90
13328;DHT22;6733;51.044;3.746;2023-12-04T15:38:12;7.00;99.90
13328;DHT22;6733;51.044;3.746;2023-12-04T15:40:38;6.90;99.90
13328;DHT22;6733;51.044;3.746;2023-12-04T15:43:04;6.90;99.90
13328;DHT22;6733;51.044;3.746;2023-12-04T15:45:29;6.90;99.90
13328;DHT22;6733;51.044;3.746;2023-12-04T15:47:55;6.90;99.90
13328;DHT22;6733;51.044;3.746;2023-12-04T15:50:21;6.90;99.90
13328;DHT22;6733;51.044;3.746;2023-12-04T15:52:48;6.90;99.90
13328;DHT22;6733;51.044;3.746;2023-12-04T15:55:15;6.90;99.90
13328;DHT22;6733;51.044;3.746;2023-12-04T15:57:40;6.90;99.90
13328;DHT22;6733;51.044;3.746;2023-12-04T16:00:06;6.90;99.90
13328;DHT22;6733;51.044;3.746;2023-12-04T16:02:35;6.90;99.90
13328;DHT22;6733;51.044;3.746;2023-12-04T16:05:00;6.90;99.90
13328;DHT22;6733;51.044;3.746;2023-12-04T16:07:26;6.90;99.90
13328;DHT22;6733;51.044;3.746;2023-12-04T16:09:53;6.80;99.90
13328;DHT22;6733;51.044;3.746;2023-12-04T16:12:19;6.90;99.90
13328;DHT22;6733;51.044;3.746;2023-12-04T16:14:45;6.90;99.90
13328;DHT22;6733;51.044;3.746;2023-12-04T16:17:11;6.90;99.90
13328;DHT22;6733;51.044;3.746;2023-12-04T16:19:37;6.90;99.90
13328;DHT22;6733;51.044;3.746;2023-12-04T16:22:03;6.80;99.90
13328;DHT22;6733;51.044;3.746;2023-12-04T16:24:29;6.90;99.90
13328;DHT22;6733;51.044;3.746;2023-12-04T16:26:55;6.90;99.90